South Bristol, Maine
Current Conditions -  °F | °C
As of 1:53 PM on Wednesday 26 Nov 2014 (Local Time) from KIWI Reporting Station
Heavy Snow Heavy Snow  
Wind Chill: 33°   Ceiling: 500
Heat Index: 33°   Visibility: 0.25mi
Dew Point: 32°   Wind: 0mph
Humidity: 96%   Direction: NA
Pressure: 30.18"   Gusts: NA
Location:  43.86°N, 69.56°W
Report Text: KIWI 261853Z AUTO 00000KT 1/4SM +SN FG VV005 01/00 A3018 RMK AO2 SLP221 P0012 T00060000
Loading
Personal Weather Stations






























Interactive Weather Map New forecast layout! Learn more

10-Day Weather Forecast

Advertisements
Track Severe Weather on mobile